Time;durP1;ratioP1;P1;durP2;ratioP2;P2;SDS_P1;SDS_P2;PMS_P1;PMS_P2;Temp;Humidity;BMP_temperature;BMP_pressure;BME280_temperature;BME280_humidity;BME280_pressure;Samples;Min_cycle;Max_cycle;Signal;HPM_P1;HPM_P2
2022/10/08 00:00:47;;;;;;;3.17;2.20;;;10.90;99.90;;;;;;4974547;28;20409;-73
2022/10/08 00:03:14;;;;;;;5.70;1.60;;;10.90;99.90;;;;;;4974361;28;20448;-73
2022/10/08 00:05:40;;;;;;;2.87;2.03;;;10.90;99.90;;;;;;4974099;28;20463;-73
2022/10/08 00:08:06;;;;;;;4.50;1.23;;;11.00;99.90;;;;;;4974450;28;20918;-73
2022/10/08 00:10:32;;;;;;;4.20;1.27;;;11.00;99.90;;;;;;4973068;28;20170;-72
2022/10/08 00:12:59;;;;;;;7.53;1.90;;;10.90;99.90;;;;;;4974285;28;20415;-72
2022/10/08 00:15:25;;;;;;;2.27;1.43;;;10.90;99.90;;;;;;4973998;28;20212;-73
2022/10/08 00:17:51;;;;;;;5.33;1.33;;;10.90;99.90;;;;;;4977897;28;20946;-72
2022/10/08 00:20:16;;;;;;;5.80;2.17;;;10.80;99.90;;;;;;4974244;28;20176;-72
2022/10/08 00:22:42;;;;;;;3.20;1.80;;;10.80;99.90;;;;;;4973914;28;20733;-71
2022/10/08 00:25:09;;;;;;;2.27;1.20;;;10.80;99.90;;;;;;4977072;28;20468;-73
2022/10/08 00:27:37;;;;;;;2.20;1.20;;;10.60;99.90;;;;;;4982255;28;20275;-73
2022/10/08 00:30:03;;;;;;;4.83;1.37;;;10.60;99.90;;;;;;4982041;28;20480;-73
2022/10/08 00:32:29;;;;;;;6.43;1.53;;;10.40;99.90;;;;;;4980184;28;20437;-72
2022/10/08 00:34:56;;;;;;;2.90;1.60;;;10.40;99.90;;;;;;4973717;28;20772;-71
2022/10/08 00:37:21;;;;;;;2.60;2.40;;;10.30;99.90;;;;;;4973798;28;20177;-72
2022/10/08 00:39:47;;;;;;;11.20;2.20;;;10.30;99.90;;;;;;4973969;28;20452;-72
2022/10/08 00:42:13;;;;;;;3.27;2.13;;;10.20;99.90;;;;;;4973835;28;20158;-74
2022/10/08 00:44:57;;;;;;;5.73;1.97;;;10.20;99.90;;;;;;4972221;28;20178;-71
2022/10/08 00:47:35;;;;;;;3.30;2.00;;;10.10;99.90;;;;;;4973672;28;20189;-72
2022/10/08 00:50:03;;;;;;;6.53;1.97;;;10.10;99.90;;;;;;4981066;28;20483;-73
2022/10/08 00:52:33;;;;;;;4.73;1.87;;;10.00;99.90;;;;;;4976288;28;20415;-73
2022/10/08 00:55:02;;;;;;;4.97;1.80;;;9.90;99.90;;;;;;4975066;28;20401;-73
2022/10/08 00:57:28;;;;;;;7.53;2.10;;;9.80;99.90;;;;;;4973631;28;20429;-72
2022/10/08 00:59:55;;;;;;;6.50;2.40;;;9.70;99.90;;;;;;4975674;28;20409;-72
2022/10/08 01:02:20;;;;;;;2.00;1.67;;;9.70;99.90;;;;;;4973498;28;20662;-71
2022/10/08 01:04:47;;;;;;;4.97;1.53;;;9.70;99.90;;;;;;4977789;28;20401;-73
2022/10/08 01:07:19;;;;;;;3.73;1.87;;;9.60;99.90;;;;;;4972925;28;20189;-72
2022/10/08 01:10:05;;;;;;;4.20;1.67;;;9.60;99.90;;;;;;4976031;28;20405;-73
2022/10/08 01:12:52;;;;;;;5.90;2.50;;;9.50;99.90;;;;;;4978365;28;20433;-73
2022/10/08 01:15:40;;;;;;;2.43;1.60;;;9.50;99.90;;;;;;4973206;28;20820;-74
2022/10/08 01:18:22;;;;;;;4.73;1.90;;;9.50;99.90;;;;;;4973404;28;20802;-73
2022/10/08 01:21:04;;;;;;;2.90;1.30;;;9.50;99.90;;;;;;4973402;28;20778;-72
2022/10/08 01:23:50;;;;;;;2.37;1.47;;;9.40;99.90;;;;;;4973942;28;20521;-74
2022/10/08 01:26:50;;;;;;;4.10;1.70;;;9.40;99.90;;;;;;4976979;28;20451;-71
2022/10/08 01:29:26;;;;;;;5.17;1.50;;;9.30;99.90;;;;;;4973259;28;20852;-72
2022/10/08 01:32:03;;;;;;;4.40;1.43;;;9.30;99.90;;;;;;4973261;28;20409;-72
2022/10/08 01:34:28;;;;;;;5.23;2.33;;;9.20;99.90;;;;;;4973059;28;20412;-72
2022/10/08 01:36:57;;;;;;;2.53;1.40;;;9.20;99.90;;;;;;4980570;28;20436;-71
2022/10/08 01:39:28;;;;;;;1.90;1.33;;;9.20;99.90;;;;;;4983148;28;20247;-73
2022/10/08 01:41:57;;;;;;;5.37;1.50;;;9.20;99.90;;;;;;4980487;28;20772;-72
2022/10/08 01:44:32;;;;;;;4.23;1.97;;;9.20;99.90;;;;;;4976708;28;20829;-72
2022/10/08 01:47:01;;;;;;;4.47;1.33;;;9.30;99.90;;;;;;4977000;28;20420;-72
2022/10/08 01:49:31;;;;;;;3.83;1.60;;;9.30;99.90;;;;;;4976793;28;20428;-71
2022/10/08 01:52:04;;;;;;;5.63;3.40;;;9.40;99.90;;;;;;4980918;28;20428;-72
2022/10/08 01:54:31;;;;;;;5.97;2.10;;;9.40;99.90;;;;;;4976585;28;20437;-72
2022/10/08 01:57:00;;;;;;;4.63;2.00;;;9.40;99.90;;;;;;4976705;28;20527;-72
2022/10/08 01:59:50;;;;;;;7.63;1.70;;;9.40;99.90;;;;;;4976751;28;20408;-72
2022/10/08 02:02:19;;;;;;;2.50;1.70;;;9.40;99.90;;;;;;4976716;28;20412;-72
2022/10/08 02:04:44;;;;;;;4.20;1.47;;;9.50;99.90;;;;;;4976395;28;20424;-72
2022/10/08 02:07:28;;;;;;;3.20;1.60;;;9.50;99.90;;;;;;4976557;28;20424;-71
2022/10/08 02:10:03;;;;;;;4.70;1.47;;;9.50;99.90;;;;;;4976673;28;20174;-73
2022/10/08 02:12:28;;;;;;;2.73;1.60;;;9.50;99.90;;;;;;4977253;28;20470;-74
2022/10/08 02:14:56;;;;;;;2.50;1.70;;;9.50;99.90;;;;;;4976782;28;20507;-74
2022/10/08 02:17:40;;;;;;;3.47;2.00;;;9.50;99.90;;;;;;4981130;28;20249;-73
2022/10/08 02:20:40;;;;;;;4.03;1.80;;;9.50;99.90;;;;;;4991717;28;20515;-74
2022/10/08 02:23:12;;;;;;;5.80;1.50;;;9.50;99.90;;;;;;4992173;28;20413;-73
2022/10/08 02:25:42;;;;;;;4.37;1.70;;;9.50;99.90;;;;;;4976929;28;20435;-73
2022/10/08 02:28:35;;;;;;;2.60;1.40;;;9.50;99.90;;;;;;4976708;28;20432;-74
2022/10/08 02:31:12;;;;;;;3.50;2.70;;;9.50;99.90;;;;;;4976267;28;20444;-72
2022/10/08 02:33:50;;;;;;;2.27;1.43;;;9.60;99.90;;;;;;4976127;28;20460;-71
2022/10/08 02:36:22;;;;;;;10.73;1.93;;;9.50;99.90;;;;;;4975817;28;20428;-72
2022/10/08 02:39:07;;;;;;;5.23;1.53;;;9.50;99.90;;;;;;4976105;28;20467;-72
2022/10/08 02:41:55;;;;;;;4.30;1.30;;;9.50;99.90;;;;;;4976001;28;20408;-73
2022/10/08 02:44:50;;;;;;;3.67;2.43;;;9.50;99.90;;;;;;4975571;28;20512;-72
2022/10/08 02:47:21;;;;;;;4.90;1.77;;;9.50;99.90;;;;;;4989129;28;20481;-72
2022/10/08 02:49:55;;;;;;;3.57;1.30;;;9.50;99.90;;;;;;4975883;28;20905;-72
2022/10/08 02:52:23;;;;;;;4.20;2.17;;;9.40;99.90;;;;;;4976345;28;20923;-73
2022/10/08 02:54:53;;;;;;;3.33;2.10;;;9.50;99.90;;;;;;4979756;28;20515;-72
2022/10/08 02:57:30;;;;;;;3.13;1.60;;;9.50;99.90;;;;;;4975860;28;20942;-73
2022/10/08 02:59:57;;;;;;;4.63;1.83;;;9.50;99.90;;;;;;4975644;28;20407;-73
2022/10/08 03:02:31;;;;;;;1.93;1.73;;;9.50;99.90;;;;;;4975659;28;20459;-73
2022/10/08 03:05:00;;;;;;;3.60;1.90;;;9.50;99.90;;;;;;4976181;28;20499;-73
2022/10/08 03:07:29;;;;;;;6.80;1.23;;;9.50;99.90;;;;;;4981094;28;20429;-74
2022/10/08 03:09:56;;;;;;;2.23;1.37;;;9.60;99.90;;;;;;4976476;28;20486;-72
2022/10/08 03:12:23;;;;;;;5.40;2.00;;;9.60;99.90;;;;;;4976301;28;20409;-74
2022/10/08 03:14:51;;;;;;;3.83;1.60;;;9.60;99.90;;;;;;4978876;28;20409;-73
2022/10/08 03:17:23;;;;;;;2.63;1.60;;;9.60;99.90;;;;;;4980255;28;20784;-71
2022/10/08 03:19:49;;;;;;;2.17;1.50;;;9.60;99.90;;;;;;4975409;28;20397;-71
2022/10/08 03:22:15;;;;;;;10.53;2.67;;;9.60;99.90;;;;;;4975322;28;21163;-72
2022/10/08 03:24:40;;;;;;;7.83;2.00;;;9.60;99.90;;;;;;4975096;28;20185;-72
2022/10/08 03:27:06;;;;;;;5.40;1.80;;;9.60;99.90;;;;;;4975123;28;20567;-72
2022/10/08 03:29:31;;;;;;;3.57;1.90;;;9.60;99.90;;;;;;4975168;28;20197;-71
2022/10/08 03:31:57;;;;;;;3.03;1.33;;;9.70;99.90;;;;;;4975136;28;20269;-72
2022/10/08 03:34:25;;;;;;;1.97;1.10;;;9.70;99.90;;;;;;4973536;28;20268;-73
2022/10/08 03:36:51;;;;;;;4.70;1.80;;;9.70;99.90;;;;;;4974934;28;20186;-73
2022/10/08 03:39:17;;;;;;;3.67;1.33;;;9.70;99.90;;;;;;4975085;28;21017;-71
2022/10/08 03:41:42;;;;;;;5.70;1.53;;;9.70;99.90;;;;;;4974972;28;20513;-72
2022/10/08 03:44:09;;;;;;;3.30;1.60;;;9.70;99.90;;;;;;4977697;28;20178;-72
2022/10/08 03:46:35;;;;;;;3.13;1.23;;;9.80;99.90;;;;;;4974613;28;20197;-72
2022/10/08 03:49:00;;;;;;;5.67;1.73;;;9.80;99.90;;;;;;4973624;28;20444;-73
2022/10/08 03:51:26;;;;;;;8.77;5.33;;;9.80;99.90;;;;;;4973823;28;20212;-74
2022/10/08 03:53:51;;;;;;;8.20;2.70;;;9.90;99.90;;;;;;4974730;28;20193;-73
2022/10/08 03:56:19;;;;;;;2.13;1.27;;;10.00;99.90;;;;;;4974386;28;20229;-73
2022/10/08 03:58:46;;;;;;;2.83;1.40;;;10.10;99.90;;;;;;4972797;28;20178;-73
2022/10/08 04:01:14;;;;;;;8.93;2.13;;;10.20;99.90;;;;;;4974626;28;20441;-73
2022/10/08 04:03:40;;;;;;;6.40;1.27;;;10.40;99.90;;;;;;4974501;28;20466;-73
2022/10/08 04:06:06;;;;;;;4.77;1.90;;;10.60;99.90;;;;;;4974139;28;20437;-71
2022/10/08 04:08:32;;;;;;;2.23;1.53;;;10.80;99.90;;;;;;4974406;28;20173;-73
2022/10/08 04:11:02;;;;;;;8.60;4.47;;;11.00;99.90;;;;;;4974477;28;21061;-72
2022/10/08 04:13:28;;;;;;;10.83;4.57;;;11.20;99.90;;;;;;4974383;28;20468;-73
2022/10/08 04:16:01;;;;;;;3.53;2.00;;;11.30;99.90;;;;;;4974042;28;20778;-73
2022/10/08 04:18:26;;;;;;;4.37;1.70;;;11.50;99.90;;;;;;4974295;28;20162;-72
2022/10/08 04:20:57;;;;;;;5.63;1.67;;;11.70;99.90;;;;;;4974205;28;20405;-73
2022/10/08 04:23:23;;;;;;;4.00;1.70;;;11.80;99.90;;;;;;4974136;28;20277;-71
2022/10/08 04:25:50;;;;;;;1.73;1.17;;;11.90;99.90;;;;;;4973882;28;20507;-71
2022/10/08 04:28:15;;;;;;;3.03;1.20;;;12.10;99.90;;;;;;4974035;28;20205;-72
2022/10/08 04:30:41;;;;;;;7.83;2.33;;;12.20;99.90;;;;;;4972822;28;20421;-72
2022/10/08 04:33:06;;;;;;;13.77;1.70;;;12.30;99.90;;;;;;4974095;28;20818;-73
2022/10/08 04:35:36;;;;;;;3.90;1.30;;;12.30;99.90;;;;;;4973737;28;20628;-73
2022/10/08 04:38:02;;;;;;;3.40;1.70;;;12.40;99.90;;;;;;4975283;28;20203;-73
2022/10/08 04:40:27;;;;;;;3.37;1.80;;;12.40;99.90;;;;;;4976636;28;20915;-73
2022/10/08 04:42:53;;;;;;;2.60;1.80;;;12.40;99.90;;;;;;4973930;28;20177;-73
2022/10/08 04:45:18;;;;;;;4.17;1.53;;;12.40;99.90;;;;;;4973510;28;20174;-73
2022/10/08 04:47:44;;;;;;;4.70;2.13;;;12.40;99.90;;;;;;4973708;28;20679;-72
2022/10/08 04:50:09;;;;;;;1.90;1.70;;;12.40;99.90;;;;;;4973697;28;20189;-72
2022/10/08 04:52:35;;;;;;;2.03;1.83;;;12.40;99.90;;;;;;4973610;28;20169;-72
2022/10/08 04:55:00;;;;;;;11.40;2.20;;;12.40;99.90;;;;;;4973784;28;20170;-74
2022/10/08 04:57:26;;;;;;;5.53;2.10;;;12.40;99.90;;;;;;4977470;28;20558;-73
2022/10/08 04:59:51;;;;;;;6.00;2.50;;;12.40;99.90;;;;;;4974895;28;20169;-74
2022/10/08 05:02:17;;;;;;;7.90;2.73;;;12.50;99.90;;;;;;4973703;28;20173;-72
2022/10/08 05:04:42;;;;;;;3.83;2.17;;;12.50;99.90;;;;;;4973384;28;20538;-72
2022/10/08 05:07:08;;;;;;;4.00;2.73;;;12.50;99.90;;;;;;4973395;28;20237;-76
2022/10/08 05:09:33;;;;;;;5.87;2.50;;;12.50;99.90;;;;;;4972525;28;20256;-73
2022/10/08 05:11:59;;;;;;;5.00;2.40;;;12.50;99.90;;;;;;4973475;28;20570;-71
2022/10/08 05:14:24;;;;;;;3.83;2.33;;;12.50;99.90;;;;;;4972954;28;20193;-71
2022/10/08 05:16:50;;;;;;;3.33;3.03;;;12.50;99.90;;;;;;4973339;28;20181;-71
2022/10/08 05:19:15;;;;;;;5.10;2.90;;;12.40;99.90;;;;;;4975101;28;20200;-72
2022/10/08 05:21:41;;;;;;;5.63;2.63;;;12.40;99.90;;;;;;4973281;28;20169;-72
2022/10/08 05:24:07;;;;;;;4.30;2.23;;;12.40;99.90;;;;;;4973236;28;20166;-72
2022/10/08 05:26:38;;;;;;;5.20;2.63;;;12.40;99.90;;;;;;4974855;28;20257;-73
2022/10/08 05:29:05;;;;;;;6.17;2.67;;;12.40;99.90;;;;;;4974932;28;20452;-73
2022/10/08 05:31:31;;;;;;;2.43;1.90;;;12.30;99.90;;;;;;4975958;28;20409;-74
2022/10/08 05:33:58;;;;;;;6.67;3.13;;;12.30;99.90;;;;;;4976739;28;21153;-73
2022/10/08 05:36:30;;;;;;;4.30;2.43;;;12.30;99.90;;;;;;4976365;28;20425;-72
2022/10/08 05:38:58;;;;;;;8.97;3.60;;;12.30;99.90;;;;;;4973160;28;20444;-72
2022/10/08 05:41:27;;;;;;;6.60;3.17;;;12.30;99.90;;;;;;4973174;28;20413;-72
2022/10/08 05:43:53;;;;;;;7.30;3.40;;;12.30;99.90;;;;;;4973106;28;20819;-72
2022/10/08 05:46:19;;;;;;;3.67;3.27;;;12.20;99.90;;;;;;4972736;28;20409;-73
2022/10/08 05:48:45;;;;;;;5.73;3.60;;;12.10;99.90;;;;;;4972903;28;20412;-72
2022/10/08 05:51:14;;;;;;;4.80;3.10;;;12.20;99.90;;;;;;4972870;28;20397;-71
2022/10/08 05:53:42;;;;;;;6.83;3.67;;;12.20;99.90;;;;;;4972977;28;20689;-71
2022/10/08 05:56:10;;;;;;;6.37;3.27;;;12.20;99.90;;;;;;4972611;28;20433;-73
2022/10/08 05:58:38;;;;;;;6.87;3.13;;;12.10;99.90;;;;;;4972948;28;20492;-71
2022/10/08 06:01:19;;;;;;;4.33;2.67;;;12.10;99.90;;;;;;4974689;28;20400;-73
2022/10/08 06:03:48;;;;;;;6.10;3.90;;;12.10;99.90;;;;;;4971886;28;20444;-71
2022/10/08 06:06:13;;;;;;;4.93;3.30;;;12.10;99.90;;;;;;4972487;28;20412;-72
2022/10/08 06:08:40;;;;;;;5.20;3.00;;;12.10;99.90;;;;;;4972892;28;20906;-73
2022/10/08 06:11:06;;;;;;;4.40;3.80;;;12.10;99.90;;;;;;4972878;28;20174;-71
2022/10/08 06:13:32;;;;;;;7.50;3.97;;;12.20;99.90;;;;;;4972806;28;20510;-71
2022/10/08 06:16:10;;;;;;;7.07;3.60;;;12.30;99.90;;;;;;4972508;28;20467;-72
2022/10/08 06:18:38;;;;;;;5.90;3.80;;;12.30;99.90;;;;;;4972847;28;20389;-71
2022/10/08 06:21:18;;;;;;;11.80;4.73;;;12.30;99.90;;;;;;4973751;28;20407;-73
2022/10/08 06:23:46;;;;;;;10.23;4.30;;;12.40;99.90;;;;;;4976999;28;20400;-75
2022/10/08 06:26:12;;;;;;;6.63;4.17;;;12.40;99.90;;;;;;4979403;28;20405;-72
2022/10/08 06:28:38;;;;;;;17.30;5.37;;;12.40;99.90;;;;;;4974995;28;20423;-71
2022/10/08 06:31:07;;;;;;;9.00;5.23;;;12.50;99.90;;;;;;4976242;28;20177;-71
2022/10/08 06:33:33;;;;;;;11.27;6.40;;;12.60;99.90;;;;;;4975013;28;20453;-71
2022/10/08 06:36:04;;;;;;;8.10;5.23;;;12.60;99.90;;;;;;4974588;28;20413;-72
2022/10/08 06:38:30;;;;;;;7.37;5.23;;;12.60;99.90;;;;;;4976024;28;20413;-72
2022/10/08 06:40:57;;;;;;;8.73;6.30;;;12.60;99.90;;;;;;4976242;28;20412;-72
2022/10/08 06:43:22;;;;;;;10.40;7.40;;;12.70;99.90;;;;;;4975972;28;20447;-72
2022/10/08 06:45:48;;;;;;;9.33;7.10;;;12.70;99.90;;;;;;4976937;28;20409;-72
2022/10/08 06:48:13;;;;;;;8.40;5.30;;;12.70;99.90;;;;;;4975789;28;20563;-72
2022/10/08 06:50:39;;;;;;;18.40;5.93;;;12.70;99.90;;;;;;4976853;28;20193;-73
2022/10/08 06:53:07;;;;;;;9.47;6.23;;;12.80;99.90;;;;;;4980727;28;20202;-74
2022/10/08 06:55:33;;;;;;;7.80;6.90;;;13.00;99.90;;;;;;4977345;28;20224;-74
2022/10/08 06:58:00;;;;;;;11.00;5.73;;;13.10;99.90;;;;;;4977698;28;20429;-72
2022/10/08 07:00:25;;;;;;;10.53;6.13;;;13.10;99.90;;;;;;4975897;28;20400;-72
2022/10/08 07:02:51;;;;;;;9.37;5.97;;;13.20;99.90;;;;;;4976891;28;20516;-73
2022/10/08 07:05:17;;;;;;;8.70;6.87;;;13.20;99.90;;;;;;4975370;28;20180;-73
2022/10/08 07:07:42;;;;;;;8.90;5.97;;;13.10;99.90;;;;;;4974268;28;20197;-73
2022/10/08 07:10:08;;;;;;;9.17;6.00;;;13.20;99.90;;;;;;4976609;28;20651;-72
2022/10/08 07:12:34;;;;;;;8.37;5.70;;;13.20;99.90;;;;;;4977247;28;20715;-74
2022/10/08 07:14:59;;;;;;;8.57;5.20;;;13.20;99.90;;;;;;4975688;28;20413;-71
2022/10/08 07:17:27;;;;;;;11.70;5.83;;;13.20;99.90;;;;;;4975479;28;20190;-72
2022/10/08 07:19:56;;;;;;;4.97;4.30;;;13.30;99.90;;;;;;4975341;28;20220;-72
2022/10/08 07:22:23;;;;;;;8.30;4.60;;;13.30;99.90;;;;;;4975323;28;20492;-72
2022/10/08 07:24:49;;;;;;;11.13;5.80;;;13.40;99.90;;;;;;4975375;28;20413;-73
2022/10/08 07:27:16;;;;;;;8.27;4.63;;;13.50;99.90;;;;;;4976997;28;20447;-73
2022/10/08 07:29:41;;;;;;;9.70;5.30;;;13.60;99.90;;;;;;4977362;28;20173;-74
2022/10/08 07:32:07;;;;;;;8.50;4.50;;;13.70;99.90;;;;;;4975952;28;20409;-71
2022/10/08 07:34:32;;;;;;;8.20;5.47;;;13.90;99.90;;;;;;4974362;28;20205;-71
2022/10/08 07:36:58;;;;;;;7.30;5.03;;;14.00;99.90;;;;;;4973751;28;20552;-71
2022/10/08 07:39:24;;;;;;;11.80;4.93;;;14.10;99.90;;;;;;4975038;28;20180;-71
2022/10/08 07:41:49;;;;;;;11.87;4.93;;;14.10;99.90;;;;;;4974951;28;20170;-71
2022/10/08 07:44:16;;;;;;;6.20;4.93;;;14.10;99.90;;;;;;4974602;28;20431;-71
2022/10/08 07:46:47;;;;;;;13.53;5.13;;;14.00;99.90;;;;;;4974863;28;20743;-71
2022/10/08 07:49:14;;;;;;;8.60;4.90;;;14.10;99.90;;;;;;4974688;28;20428;-73
2022/10/08 07:51:43;;;;;;;9.97;4.67;;;14.10;99.90;;;;;;4974949;28;20413;-71
2022/10/08 07:54:13;;;;;;;7.10;4.50;;;14.20;99.90;;;;;;4974580;28;20519;-72
2022/10/08 07:56:39;;;;;;;5.70;4.17;;;14.20;99.90;;;;;;4973359;28;20935;-72
2022/10/08 07:59:05;;;;;;;7.60;5.63;;;14.10;99.90;;;;;;4974559;28;20486;-72
2022/10/08 08:01:32;;;;;;;8.17;4.33;;;14.10;99.90;;;;;;4974618;28;20169;-71
2022/10/08 08:04:03;;;;;;;6.67;5.20;;;14.20;99.90;;;;;;4974527;28;20181;-72
2022/10/08 08:06:32;;;;;;;10.30;5.70;;;14.50;99.90;;;;;;4972765;28;20447;-73
2022/10/08 08:08:59;;;;;;;4.73;3.80;;;14.90;99.90;;;;;;4971318;28;20455;-72
2022/10/08 08:11:25;;;;;;;12.37;4.20;;;15.20;99.90;;;;;;4973707;28;20416;-72
2022/10/08 08:13:51;;;;;;;5.00;4.37;;;15.60;99.90;;;;;;4973812;28;20457;-74
2022/10/08 08:16:20;;;;;;;8.10;4.13;;;16.60;99.90;;;;;;4973067;28;20859;-73
2022/10/08 08:18:47;;;;;;;5.10;3.10;;;17.80;99.90;;;;;;4973457;28;20485;-73
2022/10/08 08:21:18;;;;;;;9.00;3.60;;;19.00;99.90;;;;;;4973494;28;20471;-73
2022/10/08 08:23:46;;;;;;;7.00;4.67;;;20.40;99.90;;;;;;4981365;28;20430;-73
2022/10/08 08:26:18;;;;;;;8.97;3.47;;;21.30;99.90;;;;;;4992433;28;20492;-72
2022/10/08 08:28:44;;;;;;;4.83;3.03;;;22.40;99.90;;;;;;4993194;28;20432;-74
2022/10/08 08:31:14;;;;;;;5.07;2.57;;;23.40;99.90;;;;;;4993025;28;20980;-74
2022/10/08 08:33:41;;;;;;;5.50;2.93;;;24.30;99.90;;;;;;4992890;28;20450;-74
2022/10/08 08:36:07;;;;;;;9.43;3.67;;;24.80;98.60;;;;;;4992692;28;20409;-73
2022/10/08 08:38:34;;;;;;;3.10;2.50;;;24.70;95.30;;;;;;4991736;28;20434;-74
2022/10/08 08:41:32;;;;;;;5.23;3.07;;;23.80;96.50;;;;;;4993116;28;20534;-74
2022/10/08 08:44:00;;;;;;;4.87;3.07;;;23.90;97.90;;;;;;4992703;28;20502;-74
2022/10/08 08:46:31;;;;;;;4.90;2.70;;;24.60;97.70;;;;;;4993241;28;20428;-74
2022/10/08 08:49:01;;;;;;;7.60;3.03;;;25.40;93.20;;;;;;4993924;28;20462;-73
2022/10/08 08:51:27;;;;;;;6.00;2.50;;;26.20;87.20;;;;;;4993785;28;20407;-73
2022/10/08 08:53:53;;;;;;;3.23;2.87;;;26.80;80.40;;;;;;4993785;28;20447;-74
2022/10/08 08:56:20;;;;;;;4.47;2.80;;;26.90;73.30;;;;;;4993194;28;20665;-74
2022/10/08 08:58:58;;;;;;;6.00;2.70;;;27.30;72.50;;;;;;4993541;28;20423;-75
2022/10/08 09:01:33;;;;;;;6.20;2.63;;;28.10;68.70;;;;;;4992869;28;20496;-73
2022/10/08 09:04:06;;;;;;;4.70;2.13;;;29.10;64.00;;;;;;4991362;28;20451;-74
2022/10/08 09:06:33;;;;;;;6.63;2.60;;;29.50;57.50;;;;;;4992654;28;20477;-74
2022/10/08 09:09:04;;;;;;;5.10;2.83;;;28.80;57.80;;;;;;4993089;28;20822;-74
2022/10/08 09:11:30;;;;;;;12.33;3.07;;;29.60;57.50;;;;;;4993234;28;20408;-74
2022/10/08 09:14:13;;;;;;;4.13;2.43;;;29.50;56.70;;;;;;4993254;28;20448;-74
2022/10/08 09:16:39;;;;;;;4.40;2.43;;;29.70;56.00;;;;;;4993024;28;20184;-74
2022/10/08 09:19:05;;;;;;;4.10;2.43;;;30.20;53.90;;;;;;4992132;28;20766;-74
2022/10/08 09:21:33;;;;;;;3.20;1.90;;;29.20;53.40;;;;;;4992719;28;20423;-75
2022/10/08 09:23:59;;;;;;;3.03;2.30;;;29.20;54.70;;;;;;4991226;28;20439;-73
2022/10/08 09:26:34;;;;;;;4.43;2.20;;;28.50;55.20;;;;;;4990468;28;20432;-73
2022/10/08 09:29:01;;;;;;;2.53;2.03;;;26.90;55.20;;;;;;4991076;28;20407;-73
2022/10/08 09:31:30;;;;;;;4.17;2.77;;;25.90;58.00;;;;;;4992225;28;20408;-73
2022/10/08 09:34:16;;;;;;;3.10;2.80;;;24.70;59.80;;;;;;4990814;28;20463;-73
2022/10/08 09:36:49;;;;;;;6.37;2.87;;;24.00;64.30;;;;;;4992506;28;20415;-74
2022/10/08 09:39:33;;;;;;;6.27;2.90;;;24.20;66.20;;;;;;4992847;28;20507;-74
2022/10/08 09:42:07;;;;;;;4.83;2.57;;;25.80;65.80;;;;;;4992561;28;20706;-73
2022/10/08 09:44:40;;;;;;;3.10;2.47;;;27.80;59.60;;;;;;4992252;28;20403;-73
2022/10/08 09:47:09;;;;;;;3.40;2.23;;;28.80;56.70;;;;;;4992881;28;20427;-74
2022/10/08 09:49:38;;;;;;;4.47;2.33;;;30.20;53.20;;;;;;4992945;28;20459;-74
2022/10/08 09:52:25;;;;;;;2.77;2.17;;;31.60;52.10;;;;;;4991575;28;20506;-73
2022/10/08 09:55:16;;;;;;;2.53;1.87;;;32.50;50.20;;;;;;4992066;28;20503;-74
2022/10/08 09:57:45;;;;;;;2.37;1.97;;;33.80;48.10;;;;;;4996542;28;20499;-74
2022/10/08 10:00:25;;;;;;;2.60;1.67;;;34.90;44.50;;;;;;4996602;28;20408;-74
2022/10/08 10:02:56;;;;;;;4.90;2.63;;;34.40;44.00;;;;;;4996712;28;20832;-75
2022/10/08 10:05:27;;;;;;;4.23;2.00;;;35.10;44.00;;;;;;4996518;28;20917;-75
2022/10/08 10:07:53;;;;;;;3.30;2.33;;;35.10;42.50;;;;;;4996566;28;20502;-74
2022/10/08 10:10:21;;;;;;;4.83;2.20;;;33.80;41.70;;;;;;4996650;28;20531;-73
2022/10/08 10:12:55;;;;;;;3.30;2.10;;;32.90;42.60;;;;;;4996121;28;20169;-74
2022/10/08 10:15:27;;;;;;;4.47;2.17;;;33.00;43.60;;;;;;4995870;28;20885;-72
2022/10/08 10:18:01;;;;;;;5.97;2.17;;;33.00;42.60;;;;;;4995748;28;20507;-72
2022/10/08 10:20:40;;;;;;;2.83;2.00;;;31.60;43.00;;;;;;4992589;28;20909;-73
2022/10/08 10:23:20;;;;;;;2.20;1.47;;;29.80;44.10;;;;;;4995762;28;20423;-73
2022/10/08 10:25:52;;;;;;;2.83;1.60;;;28.00;45.80;;;;;;4995418;28;20407;-72
2022/10/08 10:28:33;;;;;;;3.97;1.50;;;26.40;48.50;;;;;;4995272;28;20451;-72
2022/10/08 10:31:05;;;;;;;3.50;1.93;;;25.50;51.70;;;;;;4995569;28;20411;-75
2022/10/08 10:33:41;;;;;;;4.40;1.67;;;26.90;52.60;;;;;;4994965;28;20622;-74
2022/10/08 10:36:12;;;;;;;4.80;1.60;;;28.90;51.70;;;;;;4995372;28;20399;-74
2022/10/08 10:38:50;;;;;;;1.77;1.60;;;30.70;48.20;;;;;;4995228;28;20400;-73
2022/10/08 10:41:44;;;;;;;2.63;1.60;;;32.60;45.60;;;;;;4993495;28;20893;-72
2022/10/08 10:44:12;;;;;;;4.87;2.10;;;34.10;43.50;;;;;;4995086;28;20452;-69
2022/10/08 10:46:49;;;;;;;4.10;1.57;;;35.30;41.20;;;;;;4995094;28;20590;-70
2022/10/08 10:49:21;;;;;;;3.53;1.47;;;35.40;39.50;;;;;;4994826;28;20431;-74
2022/10/08 10:52:08;;;;;;;4.10;1.80;;;36.20;39.50;;;;;;4995267;28;20420;-74
2022/10/08 10:54:34;;;;;;;2.43;1.67;;;36.10;37.70;;;;;;4994573;28;20416;-74
2022/10/08 10:57:21;;;;;;;2.23;1.80;;;34.70;38.90;;;;;;4994902;28;20427;-73
2022/10/08 11:00:01;;;;;;;2.47;1.60;;;33.50;38.90;;;;;;4994805;28;20221;-73
2022/10/08 11:02:45;;;;;;;2.17;1.47;;;32.50;41.90;;;;;;4994849;28;20392;-72
2022/10/08 11:05:26;;;;;;;4.07;2.17;;;32.10;41.40;;;;;;4994588;28;20408;-71
2022/10/08 11:08:02;;;;;;;4.60;1.90;;;30.50;43.00;;;;;;4993403;28;20412;-74
2022/10/08 11:10:33;;;;;;;7.43;2.30;;;29.50;44.10;;;;;;4994900;28;20431;-74
2022/10/08 11:13:18;;;;;;;2.07;1.50;;;28.10;44.80;;;;;;4993771;28;20412;-73
2022/10/08 11:15:54;;;;;;;3.60;1.30;;;26.90;46.20;;;;;;4993285;28;20404;-71
2022/10/08 11:18:31;;;;;;;2.07;1.87;;;25.40;48.20;;;;;;4993959;28;20420;-71
2022/10/08 11:21:19;;;;;;;4.83;2.00;;;24.50;50.90;;;;;;4982594;28;20416;-72
2022/10/08 11:24:06;;;;;;;3.93;1.60;;;24.70;52.80;;;;;;4975041;28;20452;-71
2022/10/08 11:26:46;;;;;;;2.07;1.30;;;24.40;53.70;;;;;;4974760;28;20429;-73
2022/10/08 11:29:30;;;;;;;3.20;1.37;;;24.10;54.80;;;;;;4975224;28;20902;-72
2022/10/08 11:31:56;;;;;;;3.37;1.60;;;23.90;55.10;;;;;;4974998;28;20393;-73
2022/10/08 11:34:35;;;;;;;6.60;1.80;;;23.30;55.00;;;;;;4974815;28;20824;-73
2022/10/08 11:37:11;;;;;;;2.97;1.63;;;23.60;57.70;;;;;;4974688;28;20427;-72
2022/10/08 11:40:02;;;;;;;10.73;1.77;;;24.80;57.30;;;;;;4974642;28;20906;-72
2022/10/08 11:42:36;;;;;;;3.03;1.70;;;25.30;54.90;;;;;;4973368;28;20421;-72
2022/10/08 11:45:24;;;;;;;8.53;1.80;;;24.60;53.60;;;;;;4974313;28;20467;-72
2022/10/08 11:47:56;;;;;;;2.90;1.60;;;23.60;53.40;;;;;;4974549;28;20422;-72
2022/10/08 11:50:24;;;;;;;10.57;2.17;;;23.00;54.90;;;;;;4974523;28;20569;-73
2022/10/08 11:52:52;;;;;;;2.30;1.70;;;22.40;56.60;;;;;;4974542;28;20433;-72
2022/10/08 11:55:26;;;;;;;3.70;1.97;;;22.00;59.00;;;;;;4974206;28;20492;-72
2022/10/08 11:57:58;;;;;;;2.87;2.00;;;22.10;61.20;;;;;;4974292;28;20424;-72
2022/10/08 12:00:44;;;;;;;5.73;1.33;;;23.20;63.10;;;;;;4973751;28;20766;-74
2022/10/08 12:03:28;;;;;;;7.77;1.47;;;25.40;58.40;;;;;;4975749;28;20459;-75
2022/10/08 12:06:11;;;;;;;1.93;1.63;;;27.40;53.00;;;;;;4974174;28;20467;-72
2022/10/08 12:08:52;;;;;;;2.93;1.70;;;29.20;49.40;;;;;;4974114;28;20428;-73
2022/10/08 12:11:38;;;;;;;4.60;1.80;;;28.90;45.60;;;;;;4974213;28;20401;-74
2022/10/08 12:14:09;;;;;;;3.10;1.63;;;27.90;46.00;;;;;;4974124;28;20922;-72
2022/10/08 12:17:04;;;;;;;2.90;1.50;;;27.10;46.60;;;;;;4973751;28;20431;-72
2022/10/08 12:19:33;;;;;;;3.83;1.63;;;25.70;48.30;;;;;;4973548;28;20425;-72
2022/10/08 12:22:23;;;;;;;2.70;1.70;;;24.80;49.40;;;;;;4973525;28;20490;-72
2022/10/08 12:24:57;;;;;;;3.90;1.30;;;24.60;49.80;;;;;;4972382;28;20552;-72
2022/10/08 12:27:25;;;;;;;2.33;1.20;;;25.20;50.80;;;;;;4973821;28;20769;-72
2022/10/08 12:30:05;;;;;;;1.53;1.07;;;26.60;48.80;;;;;;4973954;28;20495;-73
2022/10/08 12:32:38;;;;;;;2.23;1.00;;;28.50;46.00;;;;;;4973913;28;20776;-72
2022/10/08 12:35:16;;;;;;;2.03;1.23;;;30.10;44.60;;;;;;4973507;28;20500;-72
2022/10/08 12:37:59;;;;;;;1.63;1.00;;;31.20;42.10;;;;;;4972353;28;20433;-73
2022/10/08 12:40:40;;;;;;;4.90;1.77;;;32.70;41.60;;;;;;4973161;28;20409;-72
2022/10/08 12:43:15;;;;;;;3.30;1.20;;;33.50;39.00;;;;;;4973484;28;20957;-74
2022/10/08 12:45:53;;;;;;;2.73;1.63;;;32.70;37.30;;;;;;4973239;28;20410;-74
2022/10/08 12:48:41;;;;;;;2.80;1.07;;;31.80;36.90;;;;;;4973497;28;20429;-74
2022/10/08 12:51:30;;;;;;;4.73;1.37;;;31.30;37.90;;;;;;4973864;28;20460;-74
2022/10/08 12:53:57;;;;;;;2.70;1.00;;;31.20;37.60;;;;;;4973885;28;20413;-74
2022/10/08 12:56:27;;;;;;;2.00;1.53;;;32.10;38.50;;;;;;4973128;28;20401;-72
2022/10/08 12:58:57;;;;;;;3.00;1.50;;;33.00;37.50;;;;;;4973357;28;20405;-72
2022/10/08 13:01:24;;;;;;;2.60;1.30;;;34.00;36.80;;;;;;4972901;28;20774;-70
2022/10/08 13:04:14;;;;;;;4.27;1.60;;;34.60;35.50;;;;;;4973231;28;20495;-74
2022/10/08 13:06:40;;;;;;;2.30;1.30;;;35.60;34.80;;;;;;4973200;28;20421;-75
2022/10/08 13:09:24;;;;;;;1.80;1.20;;;35.30;33.50;;;;;;4973256;28;20420;-72